Time;durP1;ratioP1;P1;durP2;ratioP2;P2;SDS_P1;SDS_P2;PMS_P1;PMS_P2;Temp;Humidity;BMP_temperature;BMP_pressure;BME280_temperature;BME280_humidity;BME280_pressure;Samples;Min_cycle;Max_cycle;Signal;HPM_P1;HPM_P2
2022/03/03 00:02:39;;;;;;;;;;;;;;;;;;4220023;28;2261;-58
2022/03/03 00:05:00;;;;;;;;;;;;;;;;;;4219645;28;1976;-58
2022/03/03 00:07:20;;;;;;;;;;;;;;;;;;4219739;28;906;-59
2022/03/03 00:09:41;;;;;;;;;;;;;;;;;;4220386;28;813;-57
2022/03/03 00:12:02;;;;;;;;;;;;;;;;;;4219919;28;842;-58
2022/03/03 00:14:23;;;;;;;;;;;;;;;;;;4219693;28;1022;-58
2022/03/03 00:16:43;;;;;;;;;;;;;;;;;;4219637;28;821;-57
2022/03/03 00:19:04;;;;;;;;;;;;;;;;;;4200754;28;1145;-58
2022/03/03 00:21:25;;;;;;;;;;;;;;;;;;4219452;28;861;-58
2022/03/03 00:23:45;;;;;;;;;;;;;;;;;;4219537;28;817;-58
2022/03/03 00:26:08;;;;;;;;;;;;;;;;;;4218736;28;1363;-58
2022/03/03 00:28:29;;;;;;;;;;;;;;;;;;4218651;28;1135;-58
2022/03/03 00:30:49;;;;;;;;;;;;;;;;;;4218852;28;923;-60
2022/03/03 00:33:10;;;;;;;;;;;;;;;;;;4219539;28;902;-57
2022/03/03 00:35:31;;;;;;;;;;;;;;;;;;4219366;28;879;-58
2022/03/03 00:37:52;;;;;;;;;;;;;;;;;;4204332;28;1068;-58
2022/03/03 00:40:13;;;;;;;;;;;;;;;;;;4219858;28;1029;-58
2022/03/03 00:42:33;;;;;;;;;;;;;;;;;;4204405;28;1007;-57
2022/03/03 00:44:54;;;;;;;;;;;;;;;;;;4219446;28;1909;-59
2022/03/03 00:47:15;;;;;;;;;;;;;;;;;;4220208;28;914;-57
2022/03/03 00:49:36;;;;;;;;;;;;;;;;;;4219560;28;946;-58
2022/03/03 00:51:56;;;;;;;;;;;;;;;;;;4219462;28;902;-58
2022/03/03 00:54:17;;;;;;;;;;;;;;;;;;4219551;28;952;-57
2022/03/03 00:56:38;;;;;;;;;;;;;;;;;;4219185;28;1029;-57
2022/03/03 00:58:58;;;;;;;;;;;;;;;;;;4222137;28;842;-58
2022/03/03 01:01:19;;;;;;;;;;;;;;;;;;4222404;28;1358;-57
2022/03/03 01:03:40;;;;;;;;;;;;;;;;;;4222626;28;1445;-58
2022/03/03 01:06:00;;;;;;;;;;;;;;;;;;4222107;28;1918;-58
2022/03/03 01:08:21;;;;;;;;;;;;;;;;;;4221262;28;818;-57
2022/03/03 01:10:42;;;;;;;;;;;;;;;;;;4222348;28;850;-57
2022/03/03 01:13:02;;;;;;;;;;;;;;;;;;4220991;28;976;-57
2022/03/03 01:15:23;;;;;;;;;;;;;;;;;;4205656;28;947;-57
2022/03/03 01:17:44;;;;;;;;;;;;;;;;;;4205651;28;880;-58
2022/03/03 01:20:04;;;;;;;;;;;;;;;;;;4205256;28;1210;-57
2022/03/03 01:22:25;;;;;;;;;;;;;;;;;;4205264;28;884;-57
2022/03/03 01:24:46;;;;;;;;;;;;;;;;;;4205173;28;1975;-58
2022/03/03 01:27:06;;;;;;;;;;;;;;;;;;4205275;28;901;-58
2022/03/03 01:29:27;;;;;;;;;;;;;;;;;;4205448;28;924;-57
2022/03/03 01:31:48;;;;;;;;;;;;;;;;;;4204823;28;1115;-59
2022/03/03 01:34:09;;;;;;;;;;;;;;;;;;4205112;28;1003;-57
2022/03/03 01:36:30;;;;;;;;;;;;;;;;;;4205157;28;1011;-57
2022/03/03 01:38:50;;;;;;;;;;;;;;;;;;4204766;28;1245;-57
2022/03/03 01:41:12;;;;;;;;;;;;;;;;;;4204141;28;1244;-57
2022/03/03 01:43:33;;;;;;;;;;;;;;;;;;4203790;28;991;-57
2022/03/03 01:45:54;;;;;;;;;;;;;;;;;;4204627;28;1983;-57
2022/03/03 01:48:14;;;;;;;;;;;;;;;;;;4204850;28;922;-56
2022/03/03 01:50:35;;;;;;;;;;;;;;;;;;4204762;28;837;-57
2022/03/03 01:52:56;;;;;;;;;;;;;;;;;;4204496;28;989;-57
2022/03/03 01:55:16;;;;;;;;;;;;;;;;;;4204918;28;1037;-57
2022/03/03 01:57:37;;;;;;;;;;;;;;;;;;4204309;28;836;-57
2022/03/03 01:59:58;;;;;;;;;;;;;;;;;;4205154;28;849;-57
2022/03/03 02:02:43;;;;;;;;;;;;;;;;;;4205113;28;753;-57
2022/03/03 02:05:04;;;;;;;;;;;;;;;;;;4202696;28;1929;-58
2022/03/03 02:07:24;;;;;;;;;;;;;;;;;;4217401;28;981;-57
2022/03/03 02:09:45;;;;;;;;;;;;;;;;;;4216944;28;1101;-57
2022/03/03 02:12:06;;;;;;;;;;;;;;;;;;4203851;28;995;-57
2022/03/03 02:14:26;;;;;;;;;;;;;;;;;;4203543;28;924;-57
2022/03/03 02:16:47;;;;;;;;;;;;;;;;;;4203642;28;984;-57
2022/03/03 02:19:08;;;;;;;;;;;;;;;;;;4202394;28;1002;-57
2022/03/03 02:21:30;;;;;;;;;;;;;;;;;;4202456;28;962;-57
2022/03/03 02:23:50;;;;;;;;;;;;;;;;;;4203949;28;1045;-57
2022/03/03 02:26:11;;;;;;;;;;;;;;;;;;4203980;28;1922;-57
2022/03/03 02:28:32;;;;;;;;;;;;;;;;;;4203635;28;925;-57
2022/03/03 02:30:52;;;;;;;;;;;;;;;;;;4203957;28;1021;-57
2022/03/03 02:33:13;;;;;;;;;;;;;;;;;;4204016;28;961;-57
2022/03/03 02:35:35;;;;;;;;;;;;;;;;;;4217023;28;962;-57
2022/03/03 02:37:55;;;;;;;;;;;;;;;;;;4203055;28;1314;-57
2022/03/03 02:40:20;;;;;;;;;;;;;;;;;;4203940;28;939;-57
2022/03/03 02:42:40;;;;;;;;;;;;;;;;;;4203581;28;1100;-58
2022/03/03 02:45:01;;;;;;;;;;;;;;;;;;4203833;28;1959;-57
2022/03/03 02:47:22;;;;;;;;;;;;;;;;;;4203419;28;954;-57
2022/03/03 02:49:43;;;;;;;;;;;;;;;;;;4203422;28;1003;-56
2022/03/03 02:52:03;;;;;;;;;;;;;;;;;;4203587;28;1261;-57
2022/03/03 02:54:24;;;;;;;;;;;;;;;;;;4204091;28;928;-57
2022/03/03 02:59:23;;;;;;;;;;;;;;;;;;4204016;28;855;-56
2022/03/03 03:01:43;;;;;;;;;;;;;;;;;;4203827;28;942;-57
2022/03/03 03:04:04;;;;;;;;;;;;;;;;;;4203974;28;957;-58
2022/03/03 03:06:24;;;;;;;;;;;;;;;;;;4217008;28;1975;-56
2022/03/03 03:08:45;;;;;;;;;;;;;;;;;;4203855;28;824;-57
2022/03/03 03:11:05;;;;;;;;;;;;;;;;;;4203973;28;941;-57
2022/03/03 03:13:26;;;;;;;;;;;;;;;;;;4203077;28;1501;-56
2022/03/03 03:15:47;;;;;;;;;;;;;;;;;;4203865;28;1016;-56
2022/03/03 03:18:09;;;;;;;;;;;;;;;;;;4203882;28;854;-56
2022/03/03 03:20:30;;;;;;;;;;;;;;;;;;4202747;28;952;-57
2022/03/03 03:22:51;;;;;;;;;;;;;;;;;;4216895;28;989;-57
2022/03/03 03:25:11;;;;;;;;;;;;;;;;;;4202524;28;1997;-57
2022/03/03 03:27:32;;;;;;;;;;;;;;;;;;4203568;28;886;-57
2022/03/03 03:29:53;;;;;;;;;;;;;;;;;;4204351;28;821;-56
2022/03/03 03:32:14;;;;;;;;;;;;;;;;;;4203664;28;945;-57
2022/03/03 03:34:35;;;;;;;;;;;;;;;;;;4203840;28;996;-56
2022/03/03 03:36:56;;;;;;;;;;;;;;;;;;4190124;28;1032;-57
2022/03/03 03:39:16;;;;;;;;;;;;;;;;;;4203009;28;1291;-57
2022/03/03 03:41:37;;;;;;;;;;;;;;;;;;4203191;28;917;-57
2022/03/03 03:43:58;;;;;;;;;;;;;;;;;;4203027;28;868;-56
2022/03/03 03:46:18;;;;;;;;;;;;;;;;;;4202972;28;1909;-56
2022/03/03 03:48:39;;;;;;;;;;;;;;;;;;4203766;28;1073;-56
2022/03/03 03:51:00;;;;;;;;;;;;;;;;;;4203266;28;1100;-56
2022/03/03 03:53:21;;;;;;;;;;;;;;;;;;4202592;28;939;-56
2022/03/03 03:55:41;;;;;;;;;;;;;;;;;;4203122;28;1128;-56
2022/03/03 03:58:02;;;;;;;;;;;;;;;;;;4203233;28;980;-56
2022/03/03 04:00:23;;;;;;;;;;;;;;;;;;4203351;28;1267;-56
2022/03/03 04:02:44;;;;;;;;;;;;;;;;;;4203284;28;929;-57
2022/03/03 04:05:07;;;;;;;;;;;;;;;;;;4203245;28;1041;-56
2022/03/03 04:07:27;;;;;;;;;;;;;;;;;;4203436;28;889;-56
2022/03/03 04:09:48;;;;;;;;;;;;;;;;;;4203196;28;1022;-56
2022/03/03 04:12:09;;;;;;;;;;;;;;;;;;4202880;28;1294;-56
2022/03/03 04:14:30;;;;;;;;;;;;;;;;;;4202908;28;879;-56
2022/03/03 04:16:51;;;;;;;;;;;;;;;;;;4187656;28;864;-56
2022/03/03 04:19:12;;;;;;;;;;;;;;;;;;4203187;28;921;-56
2022/03/03 04:21:32;;;;;;;;;;;;;;;;;;4203014;28;838;-56
2022/03/03 04:23:53;;;;;;;;;;;;;;;;;;4201862;28;965;-56
2022/03/03 04:26:15;;;;;;;;;;;;;;;;;;4202621;28;1910;-57
2022/03/03 04:28:35;;;;;;;;;;;;;;;;;;4202806;28;962;-56
2022/03/03 04:30:56;;;;;;;;;;;;;;;;;;4213272;28;1105;-56
2022/03/03 04:33:17;;;;;;;;;;;;;;;;;;4205882;28;829;-56
2022/03/03 04:35:38;;;;;;;;;;;;;;;;;;4205913;28;880;-58
2022/03/03 04:37:58;;;;;;;;;;;;;;;;;;4205394;28;1127;-57
2022/03/03 04:40:19;;;;;;;;;;;;;;;;;;4219052;28;825;-56
2022/03/03 04:42:39;;;;;;;;;;;;;;;;;;4205892;28;880;-57
2022/03/03 04:45:00;;;;;;;;;;;;;;;;;;4206076;28;1094;-56
2022/03/03 04:47:21;;;;;;;;;;;;;;;;;;4205701;28;1878;-56
2022/03/03 04:49:42;;;;;;;;;;;;;;;;;;4206213;28;954;-57
2022/03/03 04:52:03;;;;;;;;;;;;;;;;;;4206479;28;990;-57
2022/03/03 04:54:23;;;;;;;;;;;;;;;;;;4205730;28;822;-57
2022/03/03 04:56:44;;;;;;;;;;;;;;;;;;4205623;28;963;-57
2022/03/03 04:59:04;;;;;;;;;;;;;;;;;;4205438;28;946;-57
2022/03/03 05:01:25;;;;;;;;;;;;;;;;;;4205360;28;856;-57
2022/03/03 05:03:46;;;;;;;;;;;;;;;;;;4204080;28;841;-57
2022/03/03 05:06:06;;;;;;;;;;;;;;;;;;4204940;28;1909;-57
2022/03/03 05:08:27;;;;;;;;;;;;;;;;;;4205020;28;817;-57
2022/03/03 05:10:49;;;;;;;;;;;;;;;;;;4205288;28;946;-57
2022/03/03 05:13:10;;;;;;;;;;;;;;;;;;4205598;28;824;-57
2022/03/03 05:15:30;;;;;;;;;;;;;;;;;;4205673;28;889;-57
2022/03/03 05:17:51;;;;;;;;;;;;;;;;;;4205453;28;993;-56
2022/03/03 05:20:12;;;;;;;;;;;;;;;;;;4205417;28;826;-57
2022/03/03 05:22:32;;;;;;;;;;;;;;;;;;4205756;28;1037;-57
2022/03/03 05:24:53;;;;;;;;;;;;;;;;;;4204939;28;956;-57
2022/03/03 05:27:15;;;;;;;;;;;;;;;;;;4204537;28;1910;-57
2022/03/03 05:29:36;;;;;;;;;;;;;;;;;;4204244;28;1599;-56
2022/03/03 05:31:58;;;;;;;;;;;;;;;;;;4203686;28;937;-55
2022/03/03 05:34:18;;;;;;;;;;;;;;;;;;4203839;28;947;-56
2022/03/03 05:36:39;;;;;;;;;;;;;;;;;;4204058;28;1061;-57
2022/03/03 05:39:00;;;;;;;;;;;;;;;;;;4220289;28;1512;-57
2022/03/03 05:41:21;;;;;;;;;;;;;;;;;;4220419;28;1508;-56
2022/03/03 05:43:42;;;;;;;;;;;;;;;;;;4219868;28;826;-56
2022/03/03 05:46:02;;;;;;;;;;;;;;;;;;4219618;28;1185;-56
2022/03/03 05:48:23;;;;;;;;;;;;;;;;;;4218000;28;1410;-55
2022/03/03 05:50:43;;;;;;;;;;;;;;;;;;4219249;28;1267;-55
2022/03/03 05:53:04;;;;;;;;;;;;;;;;;;4221018;28;848;-56
2022/03/03 05:55:24;;;;;;;;;;;;;;;;;;4220382;28;922;-57
2022/03/03 05:57:46;;;;;;;;;;;;;;;;;;4221177;28;1106;-57
2022/03/03 06:00:06;;;;;;;;;;;;;;;;;;4221530;28;820;-57
2022/03/03 06:02:33;;;;;;;;;;;;;;;;;;4221625;28;855;-57
2022/03/03 06:04:54;;;;;;;;;;;;;;;;;;4234973;28;904;-56
2022/03/03 06:07:14;;;;;;;;;;;;;;;;;;4221289;28;2008;-57
2022/03/03 06:09:35;;;;;;;;;;;;;;;;;;4221322;28;1000;-57
2022/03/03 06:11:56;;;;;;;;;;;;;;;;;;4221564;28;947;-57
2022/03/03 06:14:17;;;;;;;;;;;;;;;;;;4221607;28;946;-57
2022/03/03 06:16:39;;;;;;;;;;;;;;;;;;4216362;28;1679;-57
2022/03/03 06:19:00;;;;;;;;;;;;;;;;;;4212830;28;1944;-57
2022/03/03 06:21:20;;;;;;;;;;;;;;;;;;4212120;28;1434;-57
2022/03/03 06:23:41;;;;;;;;;;;;;;;;;;4213807;28;1350;-56
2022/03/03 06:26:02;;;;;;;;;;;;;;;;;;4216467;28;1726;-56
2022/03/03 06:28:23;;;;;;;;;;;;;;;;;;4213857;28;1640;-56
2022/03/03 06:30:43;;;;;;;;;;;;;;;;;;4216800;28;1335;-57
2022/03/03 06:33:04;;;;;;;;;;;;;;;;;;4214258;28;1536;-57
2022/03/03 06:35:25;;;;;;;;;;;;;;;;;;4214651;28;1497;-56
2022/03/03 06:37:46;;;;;;;;;;;;;;;;;;4216195;28;1329;-56
2022/03/03 06:40:07;;;;;;;;;;;;;;;;;;4205254;28;1707;-58
2022/03/03 06:42:27;;;;;;;;;;;;;;;;;;4210374;28;1569;-56
2022/03/03 06:44:48;;;;;;;;;;;;;;;;;;4215354;28;1497;-56
2022/03/03 06:47:09;;;;;;;;;;;;;;;;;;4214233;28;1922;-56
2022/03/03 06:49:30;;;;;;;;;;;;;;;;;;4208706;28;1734;-56
2022/03/03 06:51:51;;;;;;;;;;;;;;;;;;4212736;28;1559;-56
2022/03/03 06:54:11;;;;;;;;;;;;;;;;;;4212213;28;1690;-56
2022/03/03 06:56:32;;;;;;;;;;;;;;;;;;4217697;28;1886;-55
2022/03/03 06:58:52;;;;;;;;;;;;;;;;;;4209370;28;1458;-57
2022/03/03 07:01:13;;;;;;;;;;;;;;;;;;4204350;28;762;-56
2022/03/03 07:03:34;;;;;;;;;;;;;;;;;;4204086;28;858;-55
2022/03/03 07:05:55;;;;;;;;;;;;;;;;;;4204189;28;1313;-55
2022/03/03 07:08:16;;;;;;;;;;;;;;;;;;4203823;28;1910;-55
2022/03/03 07:10:36;;;;;;;;;;;;;;;;;;4203714;28;846;-55
2022/03/03 07:12:58;;;;;;;;;;;;;;;;;;4203759;28;1014;-56
2022/03/03 07:15:19;;;;;;;;;;;;;;;;;;4203810;28;821;-55
2022/03/03 07:17:39;;;;;;;;;;;;;;;;;;4203907;28;852;-56
2022/03/03 07:20:01;;;;;;;;;;;;;;;;;;4203986;28;1015;-55
2022/03/03 07:22:22;;;;;;;;;;;;;;;;;;4204023;28;968;-57
2022/03/03 07:24:43;;;;;;;;;;;;;;;;;;4193471;28;1264;-56
2022/03/03 07:27:04;;;;;;;;;;;;;;;;;;4215332;28;3194;-56
2022/03/03 07:29:25;;;;;;;;;;;;;;;;;;4220410;28;1502;-58
2022/03/03 07:31:46;;;;;;;;;;;;;;;;;;4220433;28;896;-56
2022/03/03 07:34:06;;;;;;;;;;;;;;;;;;4203610;28;840;-56
2022/03/03 07:36:28;;;;;;;;;;;;;;;;;;4202317;28;864;-56
2022/03/03 07:38:48;;;;;;;;;;;;;;;;;;4203185;28;1079;-56
2022/03/03 07:41:09;;;;;;;;;;;;;;;;;;4203088;28;955;-56
2022/03/03 07:43:31;;;;;;;;;;;;;;;;;;4204307;28;1674;-55
2022/03/03 07:45:51;;;;;;;;;;;;;;;;;;4202193;28;1577;-56
2022/03/03 07:48:12;;;;;;;;;;;;;;;;;;4201389;28;1905;-56
2022/03/03 07:50:39;;;;;;;;;;;;;;;;;;4215568;28;892;-55
2022/03/03 07:52:59;;;;;;;;;;;;;;;;;;4218254;28;823;-55
2022/03/03 07:55:20;;;;;;;;;;;;;;;;;;4217660;28;1148;-56
2022/03/03 07:57:41;;;;;;;;;;;;;;;;;;4218447;28;936;-54
2022/03/03 08:00:02;;;;;;;;;;;;;;;;;;4218498;28;953;-56
2022/03/03 08:02:26;;;;;;;;;;;;;;;;;;4218613;28;820;-56
2022/03/03 08:04:46;;;;;;;;;;;;;;;;;;4217327;28;957;-56
2022/03/03 08:07:07;;;;;;;;;;;;;;;;;;4219764;28;1913;-56
2022/03/03 08:09:28;;;;;;;;;;;;;;;;;;4219480;28;951;-56
2022/03/03 08:11:50;;;;;;;;;;;;;;;;;;4191787;28;1163;-56
2022/03/03 08:14:11;;;;;;;;;;;;;;;;;;4213430;28;1708;-56
2022/03/03 08:16:32;;;;;;;;;;;;;;;;;;4215969;28;1515;-56
2022/03/03 08:18:52;;;;;;;;;;;;;;;;;;4213437;28;1270;-56
2022/03/03 08:21:13;;;;;;;;;;;;;;;;;;4216496;28;1780;-56
2022/03/03 08:23:33;;;;;;;;;;;;;;;;;;4212182;28;1479;-56
2022/03/03 08:25:54;;;;;;;;;;;;;;;;;;4209419;28;1561;-56
2022/03/03 08:28:17;;;;;;;;;;;;;;;;;;4213127;28;1967;-56
2022/03/03 08:30:38;;;;;;;;;;;;;;;;;;4205494;28;974;-57
2022/03/03 08:32:59;;;;;;;;;;;;;;;;;;4205484;28;939;-58
2022/03/03 08:35:19;;;;;;;;;;;;;;;;;;4209204;28;923;-57
2022/03/03 08:37:40;;;;;;;;;;;;;;;;;;4222235;28;1529;-56
2022/03/03 08:40:02;;;;;;;;;;;;;;;;;;4203904;28;1054;-57
2022/03/03 08:42:26;;;;;;;;;;;;;;;;;;4216779;28;1026;-59
2022/03/03 08:44:49;;;;;;;;;;;;;;;;;;4221912;28;916;-58
2022/03/03 08:47:11;;;;;;;;;;;;;;;;;;4221501;28;1015;-59
2022/03/03 08:49:33;;;;;;;;;;;;;;;;;;4221801;28;949;-59
2022/03/03 08:51:54;;;;;;;;;;;;;;;;;;4221992;28;813;-60
2022/03/03 08:54:17;;;;;;;;;;;;;;;;;;4221600;28;1330;-57
2022/03/03 08:56:39;;;;;;;;;;;;;;;;;;4215387;28;868;-58
2022/03/03 08:59:02;;;;;;;;;;;;;;;;;;4205364;28;1061;-58
2022/03/03 09:01:23;;;;;;;;;;;;;;;;;;4219439;28;877;-58
2022/03/03 09:03:44;;;;;;;;;;;;;;;;;;4219125;28;1406;-59
2022/03/03 09:06:08;;;;;;;;;;;;;;;;;;4219683;28;946;-60
2022/03/03 09:08:30;;;;;;;;;;;;;;;;;;4218299;28;1933;-62
2022/03/03 09:10:51;;;;;;;;;;;;;;;;;;4218405;28;1319;-58
2022/03/03 09:13:11;;;;;;;;;;;;;;;;;;4219724;28;877;-59
2022/03/03 09:15:33;;;;;;;;;;;;;;;;;;4219913;28;894;-59
2022/03/03 09:18:12;;;;;;;;;;;;;;;;;;4218530;28;1117;-60
2022/03/03 09:20:52;;;;;;;;;;;;;;;;;;4204440;28;1392;-59
2022/03/03 09:23:13;;;;;;;;;;;;;;;;;;4189114;28;846;-59
2022/03/03 09:25:36;;;;;;;;;;;;;;;;;;4218029;28;1211;-60
2022/03/03 09:27:57;;;;;;;;;;;;;;;;;;4219674;28;1990;-58
2022/03/03 09:30:21;;;;;;;;;;;;;;;;;;4221207;28;977;-59
2022/03/03 09:32:42;;;;;;;;;;;;;;;;;;4221963;28;820;-59
2022/03/03 09:35:04;;;;;;;;;;;;;;;;;;4221183;28;1059;-58
2022/03/03 09:37:25;;;;;;;;;;;;;;;;;;4222260;28;939;-59
2022/03/03 09:39:49;;;;;;;;;;;;;;;;;;4220777;28;987;-59
2022/03/03 09:42:14;;;;;;;;;;;;;;;;;;4221838;28;937;-59
2022/03/03 09:44:35;;;;;;;;;;;;;;;;;;4221908;28;874;-59
2022/03/03 09:46:56;;;;;;;;;;;;;;;;;;4221658;28;822;-59
2022/03/03 09:49:17;;;;;;;;;;;;;;;;;;4220888;28;1996;-60
2022/03/03 09:51:37;;;;;;;;;;;;;;;;;;4220932;28;883;-60
2022/03/03 09:53:57;;;;;;;;;;;;;;;;;;4220551;28;919;-59
2022/03/03 09:56:18;;;;;;;;;;;;;;;;;;4221037;28;883;-60
2022/03/03 09:58:39;;;;;;;;;;;;;;;;;;4221439;28;948;-60
2022/03/03 10:00:59;;;;;;;;;;;;;;;;;;4220357;28;825;-59
2022/03/03 10:03:20;;;;;;;;;;;;;;;;;;4221439;28;818;-60
2022/03/03 10:05:42;;;;;;;;;;;;;;;;;;4221405;28;954;-59
2022/03/03 10:08:03;;;;;;;;;;;;;;;;;;4221215;28;1989;-60
2022/03/03 10:10:23;;;;;;;;;;;;;;;;;;4221395;28;1038;-59
2022/03/03 10:12:45;;;;;;;;;;;;;;;;;;4221631;28;1149;-60
2022/03/03 10:15:06;;;;;;;;;;;;;;;;;;4206140;28;1310;-59
2022/03/03 10:17:27;;;;;;;;;;;;;;;;;;4221343;28;986;-59
2022/03/03 10:19:48;;;;;;;;;;;;;;;;;;4221384;28;930;-59
2022/03/03 10:22:09;;;;;;;;;;;;;;;;;;4221088;28;1120;-59
2022/03/03 10:24:29;;;;;;;;;;;;;;;;;;4216801;28;1117;-59
2022/03/03 10:26:50;;;;;;;;;;;;;;;;;;4204175;28;877;-60
2022/03/03 10:29:11;;;;;;;;;;;;;;;;;;4217290;28;1980;-59
2022/03/03 10:31:32;;;;;;;;;;;;;;;;;;4203798;28;1029;-60
2022/03/03 10:33:53;;;;;;;;;;;;;;;;;;4203801;28;1217;-59
2022/03/03 10:36:14;;;;;;;;;;;;;;;;;;4204162;28;887;-59
2022/03/03 10:38:35;;;;;;;;;;;;;;;;;;4203959;28;1231;-60
2022/03/03 10:40:56;;;;;;;;;;;;;;;;;;4219820;28;1300;-59
2022/03/03 10:43:17;;;;;;;;;;;;;;;;;;4220574;28;963;-59
2022/03/03 10:45:37;;;;;;;;;;;;;;;;;;4220148;28;1016;-60
2022/03/03 10:47:58;;;;;;;;;;;;;;;;;;4220489;28;799;-60
2022/03/03 10:50:19;;;;;;;;;;;;;;;;;;4220515;28;943;-59
2022/03/03 10:52:40;;;;;;;;;;;;;;;;;;4220656;28;852;-59
2022/03/03 10:55:01;;;;;;;;;;;;;;;;;;4220430;28;1262;-60
2022/03/03 10:57:22;;;;;;;;;;;;;;;;;;4220590;28;938;-59
2022/03/03 10:59:42;;;;;;;;;;;;;;;;;;4220701;28;1070;-59
2022/03/03 11:02:03;;;;;;;;;;;;;;;;;;4220736;28;792;-59
2022/03/03 11:04:24;;;;;;;;;;;;;;;;;;4220622;28;946;-59
2022/03/03 11:06:47;;;;;;;;;;;;;;;;;;4220243;28;1129;-59
2022/03/03 11:09:08;;;;;;;;;;;;;;;;;;4219708;28;1909;-59
2022/03/03 11:11:29;;;;;;;;;;;;;;;;;;4220332;28;1013;-59
2022/03/03 11:13:50;;;;;;;;;;;;;;;;;;4219775;28;931;-59
2022/03/03 11:16:10;;;;;;;;;;;;;;;;;;4219442;28;1033;-60
2022/03/03 11:18:31;;;;;;;;;;;;;;;;;;4205150;28;979;-59
2022/03/03 11:20:52;;;;;;;;;;;;;;;;;;4219843;28;1850;-59
2022/03/03 11:23:12;;;;;;;;;;;;;;;;;;4218844;28;1462;-60
2022/03/03 11:25:36;;;;;;;;;;;;;;;;;;4216971;28;1328;-59
2022/03/03 11:27:56;;;;;;;;;;;;;;;;;;4220731;28;1037;-59
2022/03/03 11:30:18;;;;;;;;;;;;;;;;;;4220172;28;1930;-59
2022/03/03 11:32:39;;;;;;;;;;;;;;;;;;4220464;28;1010;-59
2022/03/03 11:34:59;;;;;;;;;;;;;;;;;;4220348;28;846;-59
2022/03/03 11:37:20;;;;;;;;;;;;;;;;;;4220164;28;1039;-59
2022/03/03 11:39:41;;;;;;;;;;;;;;;;;;4218859;28;1367;-59
2022/03/03 11:42:02;;;;;;;;;;;;;;;;;;4219433;28;831;-59
2022/03/03 11:44:22;;;;;;;;;;;;;;;;;;4220039;28;938;-59
2022/03/03 11:46:43;;;;;;;;;;;;;;;;;;4219823;28;1218;-59
2022/03/03 11:49:04;;;;;;;;;;;;;;;;;;4218447;28;1999;-59
2022/03/03 11:51:24;;;;;;;;;;;;;;;;;;4207655;28;2552;-59
2022/03/03 11:53:45;;;;;;;;;;;;;;;;;;4210329;28;2173;-59
2022/03/03 11:56:05;;;;;;;;;;;;;;;;;;4209380;28;2398;-59
2022/03/03 11:58:26;;;;;;;;;;;;;;;;;;4211483;28;1809;-59
2022/03/03 12:00:47;;;;;;;;;;;;;;;;;;4213284;28;2201;-59
2022/03/03 12:03:08;;;;;;;;;;;;;;;;;;4212201;28;1552;-59
2022/03/03 12:05:29;;;;;;;;;;;;;;;;;;4218097;28;1820;-59
2022/03/03 12:07:50;;;;;;;;;;;;;;;;;;4217147;28;1644;-59
2022/03/03 12:10:10;;;;;;;;;;;;;;;;;;4204980;28;1952;-59
2022/03/03 12:12:31;;;;;;;;;;;;;;;;;;4219101;28;1543;-59
2022/03/03 12:14:52;;;;;;;;;;;;;;;;;;4219291;28;1971;-59
2022/03/03 12:17:13;;;;;;;;;;;;;;;;;;4219820;28;930;-59
2022/03/03 12:19:34;;;;;;;;;;;;;;;;;;4219640;28;988;-59
2022/03/03 12:21:55;;;;;;;;;;;;;;;;;;4211869;28;1884;-59
2022/03/03 12:24:17;;;;;;;;;;;;;;;;;;4216974;28;1102;-59
2022/03/03 12:26:38;;;;;;;;;;;;;;;;;;4218264;28;1847;-60
2022/03/03 12:29:01;;;;;;;;;;;;;;;;;;4211035;28;1977;-59
2022/03/03 12:31:21;;;;;;;;;;;;;;;;;;4217868;28;1847;-59
2022/03/03 12:33:42;;;;;;;;;;;;;;;;;;4219550;28;941;-59
2022/03/03 12:36:03;;;;;;;;;;;;;;;;;;4219590;28;1028;-59
2022/03/03 12:38:24;;;;;;;;;;;;;;;;;;4219437;28;1076;-59
2022/03/03 12:40:44;;;;;;;;;;;;;;;;;;4219099;28;1275;-60
2022/03/03 12:43:06;;;;;;;;;;;;;;;;;;4218865;28;1082;-59
2022/03/03 12:45:29;;;;;;;;;;;;;;;;;;4218958;28;1155;-59
2022/03/03 12:47:51;;;;;;;;;;;;;;;;;;4219664;28;985;-59
2022/03/03 12:50:12;;;;;;;;;;;;;;;;;;4219526;28;1987;-59
2022/03/03 12:52:32;;;;;;;;;;;;;;;;;;4204528;28;964;-59
2022/03/03 12:54:53;;;;;;;;;;;;;;;;;;4221558;28;1019;-59
2022/03/03 12:57:14;;;;;;;;;;;;;;;;;;4222529;28;1149;-59
2022/03/03 12:59:35;;;;;;;;;;;;;;;;;;4222777;28;965;-59
2022/03/03 13:01:55;;;;;;;;;;;;;;;;;;4221940;28;1065;-59
2022/03/03 13:04:20;;;;;;;;;;;;;;;;;;4221484;28;965;-60
2022/03/03 13:06:40;;;;;;;;;;;;;;;;;;4222648;28;839;-60
2022/03/03 13:09:01;;;;;;;;;;;;;;;;;;4222491;28;1980;-59
2022/03/03 13:11:22;;;;;;;;;;;;;;;;;;4207184;28;1036;-59
2022/03/03 13:13:42;;;;;;;;;;;;;;;;;;4222657;28;944;-60
2022/03/03 13:16:02;;;;;;;;;;;;;;;;;;4220479;28;1163;-59
2022/03/03 13:18:23;;;;;;;;;;;;;;;;;;4222060;28;866;-59
2022/03/03 13:20:44;;;;;;;;;;;;;;;;;;4222461;28;935;-60
2022/03/03 13:23:04;;;;;;;;;;;;;;;;;;4222200;28;878;-59
2022/03/03 13:25:26;;;;;;;;;;;;;;;;;;4221044;28;2541;-59
2022/03/03 13:27:46;;;;;;;;;;;;;;;;;;4218770;28;1136;-59
2022/03/03 13:30:07;;;;;;;;;;;;;;;;;;4220180;28;1983;-59
2022/03/03 13:32:28;;;;;;;;;;;;;;;;;;4219227;28;1042;-60
2022/03/03 13:34:48;;;;;;;;;;;;;;;;;;4215265;28;1176;-59
2022/03/03 13:37:09;;;;;;;;;;;;;;;;;;4204430;28;1147;-59
2022/03/03 13:39:30;;;;;;;;;;;;;;;;;;4220893;28;1744;-59
2022/03/03 13:41:50;;;;;;;;;;;;;;;;;;4220463;28;1006;-59
2022/03/03 13:44:11;;;;;;;;;;;;;;;;;;4220532;28;921;-59
2022/03/03 13:46:32;;;;;;;;;;;;;;;;;;4220714;28;1034;-59
2022/03/03 13:48:53;;;;;;;;;;;;;;;;;;4204890;28;1132;-59
2022/03/03 13:51:13;;;;;;;;;;;;;;;;;;4220457;28;1980;-59
2022/03/03 13:53:35;;;;;;;;;;;;;;;;;;4201966;28;979;-59
2022/03/03 13:55:55;;;;;;;;;;;;;;;;;;4220343;28;1130;-59
2022/03/03 13:58:16;;;;;;;;;;;;;;;;;;4217825;28;1658;-59
2022/03/03 14:00:38;;;;;;;;;;;;;;;;;;4220013;28;1077;-59
2022/03/03 14:02:59;;;;;;;;;;;;;;;;;;4219390;28;3333;-59
2022/03/03 14:05:19;;;;;;;;;;;;;;;;;;4218696;28;1043;-59
2022/03/03 14:07:41;;;;;;;;;;;;;;;;;;4220273;28;891;-59
2022/03/03 14:10:01;;;;;;;;;;;;;;;;;;4220046;28;1913;-59
2022/03/03 14:12:22;;;;;;;;;;;;;;;;;;4220005;28;940;-59
2022/03/03 14:14:43;;;;;;;;;;;;;;;;;;4219826;28;830;-59
2022/03/03 14:17:03;;;;;;;;;;;;;;;;;;4220244;28;1009;-59
2022/03/03 14:19:24;;;;;;;;;;;;;;;;;;4220194;28;1002;-58
2022/03/03 14:21:45;;;;;;;;;;;;;;;;;;4220024;28;830;-59
2022/03/03 14:24:05;;;;;;;;;;;;;;;;;;4219861;28;948;-59
2022/03/03 14:26:27;;;;;;;;;;;;;;;;;;4220262;28;1350;-59
2022/03/03 14:28:48;;;;;;;;;;;;;;;;;;4220004;28;928;-59
2022/03/03 14:31:09;;;;;;;;;;;;;;;;;;4219781;28;1906;-59
2022/03/03 14:33:30;;;;;;;;;;;;;;;;;;4219530;28;1022;-59
2022/03/03 14:35:52;;;;;;;;;;;;;;;;;;4220295;28;1184;-59
2022/03/03 14:38:13;;;;;;;;;;;;;;;;;;4219974;28;1268;-59
2022/03/03 14:40:35;;;;;;;;;;;;;;;;;;4220051;28;945;-59
2022/03/03 14:42:56;;;;;;;;;;;;;;;;;;4219683;28;1003;-59
2022/03/03 14:45:16;;;;;;;;;;;;;;;;;;4204330;28;1040;-59
2022/03/03 14:47:36;;;;;;;;;;;;;;;;;;4220324;28;881;-59
2022/03/03 14:49:57;;;;;;;;;;;;;;;;;;4220794;28;1906;-59
2022/03/03 14:52:18;;;;;;;;;;;;;;;;;;4220991;28;942;-59
2022/03/03 14:54:38;;;;;;;;;;;;;;;;;;4221056;28;1060;-59
2022/03/03 14:56:59;;;;;;;;;;;;;;;;;;4220556;28;989;-62
2022/03/03 14:59:20;;;;;;;;;;;;;;;;;;4220904;28;871;-59
2022/03/03 15:01:41;;;;;;;;;;;;;;;;;;4220377;28;825;-59
2022/03/03 15:04:03;;;;;;;;;;;;;;;;;;4220874;28;1227;-59
2022/03/03 15:06:24;;;;;;;;;;;;;;;;;;4221253;28;876;-59
2022/03/03 15:08:44;;;;;;;;;;;;;;;;;;4221240;28;1036;-59
2022/03/03 15:11:06;;;;;;;;;;;;;;;;;;4220674;28;1933;-61
2022/03/03 15:13:28;;;;;;;;;;;;;;;;;;4220866;28;829;-59
2022/03/03 15:15:49;;;;;;;;;;;;;;;;;;4220363;28;886;-59
2022/03/03 15:18:09;;;;;;;;;;;;;;;;;;4220488;28;1029;-59
2022/03/03 15:20:30;;;;;;;;;;;;;;;;;;4220798;28;815;-59
2022/03/03 15:22:50;;;;;;;;;;;;;;;;;;4220793;28;829;-59
2022/03/03 15:25:12;;;;;;;;;;;;;;;;;;4205606;28;913;-59
2022/03/03 15:27:34;;;;;;;;;;;;;;;;;;4220287;28;1126;-63
2022/03/03 15:29:54;;;;;;;;;;;;;;;;;;4220919;28;1901;-59
2022/03/03 15:32:15;;;;;;;;;;;;;;;;;;4220905;28;871;-59
2022/03/03 15:37:14;;;;;;;;;;;;;;;;;;4220283;28;872;-59
2022/03/03 15:39:35;;;;;;;;;;;;;;;;;;4205891;28;1429;-59
2022/03/03 15:41:56;;;;;;;;;;;;;;;;;;4203948;28;834;-59
2022/03/03 15:44:20;;;;;;;;;;;;;;;;;;4203375;28;1011;-59
2022/03/03 15:46:41;;;;;;;;;;;;;;;;;;4203354;28;919;-59
2022/03/03 15:49:01;;;;;;;;;;;;;;;;;;4203446;28;852;-59
2022/03/03 15:51:22;;;;;;;;;;;;;;;;;;4202759;28;1913;-60
2022/03/03 15:53:44;;;;;;;;;;;;;;;;;;4203367;28;1034;-59
2022/03/03 15:56:05;;;;;;;;;;;;;;;;;;4203209;28;917;-59
2022/03/03 15:58:25;;;;;;;;;;;;;;;;;;4203304;28;1062;-59
2022/03/03 16:00:46;;;;;;;;;;;;;;;;;;4203575;28;1071;-59
2022/03/03 16:03:07;;;;;;;;;;;;;;;;;;4203694;28;817;-59
2022/03/03 16:05:28;;;;;;;;;;;;;;;;;;4203654;28;932;-59
2022/03/03 16:07:49;;;;;;;;;;;;;;;;;;4203473;28;904;-60
2022/03/03 16:10:09;;;;;;;;;;;;;;;;;;4203256;28;1906;-59
2022/03/03 16:12:30;;;;;;;;;;;;;;;;;;4187670;28;995;-59
2022/03/03 16:14:52;;;;;;;;;;;;;;;;;;4203308;28;1020;-59
2022/03/03 16:17:13;;;;;;;;;;;;;;;;;;4203210;28;861;-59
2022/03/03 16:19:34;;;;;;;;;;;;;;;;;;4203152;28;951;-57
2022/03/03 16:21:56;;;;;;;;;;;;;;;;;;4210496;28;1590;-57
2022/03/03 16:24:18;;;;;;;;;;;;;;;;;;4219527;28;1168;-59
2022/03/03 16:26:39;;;;;;;;;;;;;;;;;;4218827;28;1096;-57
2022/03/03 16:29:01;;;;;;;;;;;;;;;;;;4222423;28;954;-58
2022/03/03 16:31:24;;;;;;;;;;;;;;;;;;4208431;28;1909;-58
2022/03/03 16:33:45;;;;;;;;;;;;;;;;;;4207181;28;972;-58